sensor_id;sensor_type;location;lat;lon;timestamp;temperature;humidity
53978;DHT22;39886;47.984;-1.586;2024-03-29T00:00:22;18.10;75.10
53978;DHT22;39886;47.984;-1.586;2024-03-29T00:02:48;18.10;75.70
53978;DHT22;39886;47.984;-1.586;2024-03-29T00:05:13;18.10;77.20
53978;DHT22;39886;47.984;-1.586;2024-03-29T00:07:39;18.10;78.60
53978;DHT22;39886;47.984;-1.586;2024-03-29T00:10:04;18.10;78.50
53978;DHT22;39886;47.984;-1.586;2024-03-29T00:12:30;18.10;78.70
53978;DHT22;39886;47.984;-1.586;2024-03-29T00:14:56;18.10;78.80
53978;DHT22;39886;47.984;-1.586;2024-03-29T00:17:21;18.10;82.70
53978;DHT22;39886;47.984;-1.586;2024-03-29T00:19:47;18.00;73.30
53978;DHT22;39886;47.984;-1.586;2024-03-29T00:22:13;18.00;73.30
53978;DHT22;39886;47.984;-1.586;2024-03-29T00:24:38;18.00;73.50
53978;DHT22;39886;47.984;-1.586;2024-03-29T00:27:04;18.00;73.50
53978;DHT22;39886;47.984;-1.586;2024-03-29T00:29:29;18.00;73.40
53978;DHT22;39886;47.984;-1.586;2024-03-29T00:31:55;18.00;73.50
53978;DHT22;39886;47.984;-1.586;2024-03-29T00:34:21;18.00;73.40
53978;DHT22;39886;47.984;-1.586;2024-03-29T00:36:47;18.00;73.50
53978;DHT22;39886;47.984;-1.586;2024-03-29T00:39:12;18.00;73.60
53978;DHT22;39886;47.984;-1.586;2024-03-29T00:41:38;18.00;73.60
53978;DHT22;39886;47.984;-1.586;2024-03-29T00:44:03;18.00;73.60
53978;DHT22;39886;47.984;-1.586;2024-03-29T00:46:29;18.00;73.50
53978;DHT22;39886;47.984;-1.586;2024-03-29T00:48:54;18.00;73.60
53978;DHT22;39886;47.984;-1.586;2024-03-29T00:51:20;18.00;73.50
53978;DHT22;39886;47.984;-1.586;2024-03-29T00:53:46;18.00;73.50
53978;DHT22;39886;47.984;-1.586;2024-03-29T00:56:11;18.00;74.20
53978;DHT22;39886;47.984;-1.586;2024-03-29T00:58:37;18.00;73.60
53978;DHT22;39886;47.984;-1.586;2024-03-29T01:01:02;18.00;73.50
53978;DHT22;39886;47.984;-1.586;2024-03-29T01:03:28;18.00;73.60
53978;DHT22;39886;47.984;-1.586;2024-03-29T01:05:56;17.90;73.60
53978;DHT22;39886;47.984;-1.586;2024-03-29T01:08:22;18.00;73.60
53978;DHT22;39886;47.984;-1.586;2024-03-29T01:10:49;17.90;73.60
53978;DHT22;39886;47.984;-1.586;2024-03-29T01:13:14;18.00;73.50
53978;DHT22;39886;47.984;-1.586;2024-03-29T01:15:40;17.90;73.60
53978;DHT22;39886;47.984;-1.586;2024-03-29T01:18:05;18.00;73.70
53978;DHT22;39886;47.984;-1.586;2024-03-29T01:20:31;18.00;73.70
53978;DHT22;39886;47.984;-1.586;2024-03-29T01:22:56;17.90;73.70
53978;DHT22;39886;47.984;-1.586;2024-03-29T01:25:22;17.90;73.60
53978;DHT22;39886;47.984;-1.586;2024-03-29T01:27:49;17.90;73.50
53978;DHT22;39886;47.984;-1.586;2024-03-29T01:30:15;17.90;73.60
53978;DHT22;39886;47.984;-1.586;2024-03-29T01:32:40;17.90;73.60
53978;DHT22;39886;47.984;-1.586;2024-03-29T01:35:06;17.90;73.60
53978;DHT22;39886;47.984;-1.586;2024-03-29T01:37:32;17.90;73.60
53978;DHT22;39886;47.984;-1.586;2024-03-29T01:39:57;17.90;73.80
53978;DHT22;39886;47.984;-1.586;2024-03-29T01:42:23;17.90;73.70
53978;DHT22;39886;47.984;-1.586;2024-03-29T01:44:48;17.90;73.70
53978;DHT22;39886;47.984;-1.586;2024-03-29T01:47:15;17.90;73.70
53978;DHT22;39886;47.984;-1.586;2024-03-29T01:49:41;17.90;73.60
53978;DHT22;39886;47.984;-1.586;2024-03-29T01:52:07;17.90;73.50
53978;DHT22;39886;47.984;-1.586;2024-03-29T01:54:32;17.90;73.60
53978;DHT22;39886;47.984;-1.586;2024-03-29T01:56:58;17.90;73.60
53978;DHT22;39886;47.984;-1.586;2024-03-29T01:59:24;17.90;73.60
53978;DHT22;39886;47.984;-1.586;2024-03-29T02:01:51;17.90;73.70
53978;DHT22;39886;47.984;-1.586;2024-03-29T02:04:16;17.90;73.80
53978;DHT22;39886;47.984;-1.586;2024-03-29T02:06:42;17.80;73.60
53978;DHT22;39886;47.984;-1.586;2024-03-29T02:09:07;17.80;73.60
53978;DHT22;39886;47.984;-1.586;2024-03-29T02:11:34;17.90;73.70
53978;DHT22;39886;47.984;-1.586;2024-03-29T02:14:00;17.90;73.60
53978;DHT22;39886;47.984;-1.586;2024-03-29T02:16:26;17.80;73.50
53978;DHT22;39886;47.984;-1.586;2024-03-29T02:18:51;17.90;73.80
53978;DHT22;39886;47.984;-1.586;2024-03-29T02:21:17;17.80;73.60
53978;DHT22;39886;47.984;-1.586;2024-03-29T02:23:46;17.80;73.60
53978;DHT22;39886;47.984;-1.586;2024-03-29T02:26:12;17.80;73.40
53978;DHT22;39886;47.984;-1.586;2024-03-29T02:28:38;17.80;73.60
53978;DHT22;39886;47.984;-1.586;2024-03-29T02:31:04;17.80;73.60
53978;DHT22;39886;47.984;-1.586;2024-03-29T02:33:29;17.80;73.60
53978;DHT22;39886;47.984;-1.586;2024-03-29T02:35:55;17.80;73.60
53978;DHT22;39886;47.984;-1.586;2024-03-29T02:38:21;17.80;73.60
53978;DHT22;39886;47.984;-1.586;2024-03-29T02:40:46;17.80;73.60
53978;DHT22;39886;47.984;-1.586;2024-03-29T02:43:12;17.80;73.60
53978;DHT22;39886;47.984;-1.586;2024-03-29T02:45:37;17.80;73.60
53978;DHT22;39886;47.984;-1.586;2024-03-29T02:48:03;17.80;73.60
53978;DHT22;39886;47.984;-1.586;2024-03-29T02:50:29;17.80;73.60
53978;DHT22;39886;47.984;-1.586;2024-03-29T02:52:54;17.80;73.70
53978;DHT22;39886;47.984;-1.586;2024-03-29T02:55:20;17.80;73.70
53978;DHT22;39886;47.984;-1.586;2024-03-29T02:57:45;17.80;73.80
53978;DHT22;39886;47.984;-1.586;2024-03-29T03:00:11;17.80;73.80
53978;DHT22;39886;47.984;-1.586;2024-03-29T03:02:37;17.70;73.60
53978;DHT22;39886;47.984;-1.586;2024-03-29T03:05:04;17.70;73.80
53978;DHT22;39886;47.984;-1.586;2024-03-29T03:07:30;17.70;73.80
53978;DHT22;39886;47.984;-1.586;2024-03-29T03:10:14;17.80;73.80
53978;DHT22;39886;47.984;-1.586;2024-03-29T03:12:58;17.80;73.80
53978;DHT22;39886;47.984;-1.586;2024-03-29T03:15:24;17.70;73.80
53978;DHT22;39886;47.984;-1.586;2024-03-29T03:17:49;17.70;73.80
53978;DHT22;39886;47.984;-1.586;2024-03-29T03:20:15;17.70;73.80
53978;DHT22;39886;47.984;-1.586;2024-03-29T03:22:41;17.70;73.90
53978;DHT22;39886;47.984;-1.586;2024-03-29T03:25:07;17.70;73.80
53978;DHT22;39886;47.984;-1.586;2024-03-29T03:27:33;17.70;73.90
53978;DHT22;39886;47.984;-1.586;2024-03-29T03:29:59;17.70;74.00
53978;DHT22;39886;47.984;-1.586;2024-03-29T03:32:24;17.70;73.90
53978;DHT22;39886;47.984;-1.586;2024-03-29T03:34:50;17.70;74.00
53978;DHT22;39886;47.984;-1.586;2024-03-29T03:37:15;17.70;73.90
53978;DHT22;39886;47.984;-1.586;2024-03-29T03:39:41;17.70;74.10
53978;DHT22;39886;47.984;-1.586;2024-03-29T03:42:07;17.70;74.00
53978;DHT22;39886;47.984;-1.586;2024-03-29T03:44:32;17.70;73.90
53978;DHT22;39886;47.984;-1.586;2024-03-29T03:46:58;17.60;74.00
53978;DHT22;39886;47.984;-1.586;2024-03-29T03:49:23;17.60;74.10
53978;DHT22;39886;47.984;-1.586;2024-03-29T03:51:49;17.70;74.10
53978;DHT22;39886;47.984;-1.586;2024-03-29T03:54:14;17.60;74.10
53978;DHT22;39886;47.984;-1.586;2024-03-29T03:56:40;17.70;74.20
53978;DHT22;39886;47.984;-1.586;2024-03-29T03:59:06;17.60;74.10
53978;DHT22;39886;47.984;-1.586;2024-03-29T04:01:31;17.60;74.30
53978;DHT22;39886;47.984;-1.586;2024-03-29T04:03:57;17.60;74.30
53978;DHT22;39886;47.984;-1.586;2024-03-29T04:06:22;17.60;74.40
53978;DHT22;39886;47.984;-1.586;2024-03-29T04:08:48;17.60;74.40
53978;DHT22;39886;47.984;-1.586;2024-03-29T04:11:14;17.60;74.30
53978;DHT22;39886;47.984;-1.586;2024-03-29T04:13:39;17.60;74.40
53978;DHT22;39886;47.984;-1.586;2024-03-29T04:16:06;17.60;74.50
53978;DHT22;39886;47.984;-1.586;2024-03-29T04:18:32;17.60;74.60
53978;DHT22;39886;47.984;-1.586;2024-03-29T04:20:58;17.60;74.60
53978;DHT22;39886;47.984;-1.586;2024-03-29T04:23:24;17.60;74.80
53978;DHT22;39886;47.984;-1.586;2024-03-29T04:25:52;17.60;75.00
53978;DHT22;39886;47.984;-1.586;2024-03-29T04:28:18;17.60;75.10
53978;DHT22;39886;47.984;-1.586;2024-03-29T04:30:53;17.60;76.20
53978;DHT22;39886;47.984;-1.586;2024-03-29T04:33:19;17.60;78.70
53978;DHT22;39886;47.984;-1.586;2024-03-29T04:35:55;17.50;75.50
53978;DHT22;39886;47.984;-1.586;2024-03-29T04:38:21;17.50;75.40
53978;DHT22;39886;47.984;-1.586;2024-03-29T04:40:47;17.50;75.50
53978;DHT22;39886;47.984;-1.586;2024-03-29T04:43:12;17.50;75.60
53978;DHT22;39886;47.984;-1.586;2024-03-29T04:45:38;17.50;75.70
53978;DHT22;39886;47.984;-1.586;2024-03-29T04:48:03;17.50;75.70
53978;DHT22;39886;47.984;-1.586;2024-03-29T04:50:29;17.50;75.70
53978;DHT22;39886;47.984;-1.586;2024-03-29T04:52:55;17.50;75.80
53978;DHT22;39886;47.984;-1.586;2024-03-29T04:55:20;17.50;75.90
53978;DHT22;39886;47.984;-1.586;2024-03-29T04:57:46;17.50;76.00
53978;DHT22;39886;47.984;-1.586;2024-03-29T05:00:12;17.50;76.20
53978;DHT22;39886;47.984;-1.586;2024-03-29T05:02:37;17.50;76.30
53978;DHT22;39886;47.984;-1.586;2024-03-29T05:05:03;17.50;76.20
53978;DHT22;39886;47.984;-1.586;2024-03-29T05:07:28;17.50;76.30
53978;DHT22;39886;47.984;-1.586;2024-03-29T05:09:54;17.50;76.30
53978;DHT22;39886;47.984;-1.586;2024-03-29T05:12:21;17.50;76.30
53978;DHT22;39886;47.984;-1.586;2024-03-29T05:14:46;17.50;76.50
53978;DHT22;39886;47.984;-1.586;2024-03-29T05:17:14;17.50;76.50
53978;DHT22;39886;47.984;-1.586;2024-03-29T05:19:40;17.50;76.80
53978;DHT22;39886;47.984;-1.586;2024-03-29T05:22:06;17.50;77.10
53978;DHT22;39886;47.984;-1.586;2024-03-29T05:24:31;17.50;77.30
53978;DHT22;39886;47.984;-1.586;2024-03-29T05:26:57;17.50;77.30
53978;DHT22;39886;47.984;-1.586;2024-03-29T05:29:23;17.50;77.60
53978;DHT22;39886;47.984;-1.586;2024-03-29T05:31:48;17.50;77.80
53978;DHT22;39886;47.984;-1.586;2024-03-29T05:34:14;17.50;78.30
53978;DHT22;39886;47.984;-1.586;2024-03-29T05:36:40;17.50;75.80
53978;DHT22;39886;47.984;-1.586;2024-03-29T05:39:05;17.60;75.10
53978;DHT22;39886;47.984;-1.586;2024-03-29T05:41:31;17.70;74.60
53978;DHT22;39886;47.984;-1.586;2024-03-29T05:43:57;17.80;74.20
53978;DHT22;39886;47.984;-1.586;2024-03-29T05:46:23;17.90;74.00
53978;DHT22;39886;47.984;-1.586;2024-03-29T05:48:49;18.00;73.80
53978;DHT22;39886;47.984;-1.586;2024-03-29T05:51:14;18.10;73.50
53978;DHT22;39886;47.984;-1.586;2024-03-29T05:53:40;18.20;73.40
53978;DHT22;39886;47.984;-1.586;2024-03-29T05:56:06;18.30;73.20
53978;DHT22;39886;47.984;-1.586;2024-03-29T05:58:33;18.40;73.70
53978;DHT22;39886;47.984;-1.586;2024-03-29T06:00:58;18.40;73.10
53978;DHT22;39886;47.984;-1.586;2024-03-29T06:03:24;18.50;72.90
53978;DHT22;39886;47.984;-1.586;2024-03-29T06:05:50;18.60;72.70
53978;DHT22;39886;47.984;-1.586;2024-03-29T06:08:15;18.60;72.70
53978;DHT22;39886;47.984;-1.586;2024-03-29T06:10:41;18.70;72.70
53978;DHT22;39886;47.984;-1.586;2024-03-29T06:13:06;18.70;72.50
53978;DHT22;39886;47.984;-1.586;2024-03-29T06:15:34;18.80;72.40
53978;DHT22;39886;47.984;-1.586;2024-03-29T06:18:19;18.80;72.30
53978;DHT22;39886;47.984;-1.586;2024-03-29T06:20:45;18.90;72.40
53978;DHT22;39886;47.984;-1.586;2024-03-29T06:23:10;18.90;72.40
53978;DHT22;39886;47.984;-1.586;2024-03-29T06:25:36;19.00;72.40
53978;DHT22;39886;47.984;-1.586;2024-03-29T06:28:02;19.10;72.40
53978;DHT22;39886;47.984;-1.586;2024-03-29T06:30:28;19.10;72.40
53978;DHT22;39886;47.984;-1.586;2024-03-29T06:32:53;19.20;72.30
53978;DHT22;39886;47.984;-1.586;2024-03-29T06:35:19;19.20;72.20
53978;DHT22;39886;47.984;-1.586;2024-03-29T06:37:47;19.20;72.20
53978;DHT22;39886;47.984;-1.586;2024-03-29T06:40:13;19.30;72.30
53978;DHT22;39886;47.984;-1.586;2024-03-29T06:42:38;19.30;72.40
53978;DHT22;39886;47.984;-1.586;2024-03-29T06:45:04;19.40;72.70
53978;DHT22;39886;47.984;-1.586;2024-03-29T06:47:31;19.40;72.60
53978;DHT22;39886;47.984;-1.586;2024-03-29T06:49:57;19.40;72.70
53978;DHT22;39886;47.984;-1.586;2024-03-29T06:52:22;19.50;72.90
53978;DHT22;39886;47.984;-1.586;2024-03-29T06:54:48;19.50;73.00
53978;DHT22;39886;47.984;-1.586;2024-03-29T06:57:13;19.60;73.00
53978;DHT22;39886;47.984;-1.586;2024-03-29T06:59:42;19.60;73.70
53978;DHT22;39886;47.984;-1.586;2024-03-29T07:02:08;19.60;73.90
53978;DHT22;39886;47.984;-1.586;2024-03-29T07:04:35;19.70;73.70
53978;DHT22;39886;47.984;-1.586;2024-03-29T07:07:01;19.80;73.30
53978;DHT22;39886;47.984;-1.586;2024-03-29T07:09:26;19.80;73.20
53978;DHT22;39886;47.984;-1.586;2024-03-29T07:11:52;19.80;73.60
53978;DHT22;39886;47.984;-1.586;2024-03-29T07:14:18;19.80;74.20
53978;DHT22;39886;47.984;-1.586;2024-03-29T07:16:44;19.90;74.90
53978;DHT22;39886;47.984;-1.586;2024-03-29T07:19:10;19.90;70.30
53978;DHT22;39886;47.984;-1.586;2024-03-29T07:21:43;20.00;70.30
53978;DHT22;39886;47.984;-1.586;2024-03-29T07:24:09;20.00;70.50
53978;DHT22;39886;47.984;-1.586;2024-03-29T07:26:34;20.00;70.90
53978;DHT22;39886;47.984;-1.586;2024-03-29T07:29:00;20.00;70.90
53978;DHT22;39886;47.984;-1.586;2024-03-29T07:31:26;20.10;71.00
53978;DHT22;39886;47.984;-1.586;2024-03-29T07:33:51;20.10;71.10
53978;DHT22;39886;47.984;-1.586;2024-03-29T07:36:17;20.20;71.20
53978;DHT22;39886;47.984;-1.586;2024-03-29T07:38:43;20.20;71.40
53978;DHT22;39886;47.984;-1.586;2024-03-29T07:41:11;20.20;71.50
53978;DHT22;39886;47.984;-1.586;2024-03-29T07:43:39;20.20;71.50
53978;DHT22;39886;47.984;-1.586;2024-03-29T07:46:05;20.40;71.70
53978;DHT22;39886;47.984;-1.586;2024-03-29T07:48:34;20.40;72.20
53978;DHT22;39886;47.984;-1.586;2024-03-29T07:50:59;20.40;72.40
53978;DHT22;39886;47.984;-1.586;2024-03-29T07:53:25;20.40;72.60
53978;DHT22;39886;47.984;-1.586;2024-03-29T07:55:50;20.50;72.70
53978;DHT22;39886;47.984;-1.586;2024-03-29T07:58:16;20.50;72.70
53978;DHT22;39886;47.984;-1.586;2024-03-29T08:00:42;20.50;73.10
53978;DHT22;39886;47.984;-1.586;2024-03-29T08:03:08;20.50;69.90
53978;DHT22;39886;47.984;-1.586;2024-03-29T08:05:33;20.60;70.50
53978;DHT22;39886;47.984;-1.586;2024-03-29T08:07:59;20.70;70.90
53978;DHT22;39886;47.984;-1.586;2024-03-29T08:10:25;20.70;71.00
53978;DHT22;39886;47.984;-1.586;2024-03-29T08:12:51;20.70;70.80
53978;DHT22;39886;47.984;-1.586;2024-03-29T08:15:16;20.80;71.70
53978;DHT22;39886;47.984;-1.586;2024-03-29T08:17:43;20.80;72.30
53978;DHT22;39886;47.984;-1.586;2024-03-29T08:20:09;20.80;72.40
53978;DHT22;39886;47.984;-1.586;2024-03-29T08:22:35;20.90;72.00
53978;DHT22;39886;47.984;-1.586;2024-03-29T08:25:01;20.90;72.20
53978;DHT22;39886;47.984;-1.586;2024-03-29T08:27:27;20.90;72.30
53978;DHT22;39886;47.984;-1.586;2024-03-29T08:29:52;21.00;72.20
53978;DHT22;39886;47.984;-1.586;2024-03-29T08:32:18;21.00;72.50
53978;DHT22;39886;47.984;-1.586;2024-03-29T08:34:44;21.10;73.60
53978;DHT22;39886;47.984;-1.586;2024-03-29T08:37:09;21.20;73.10
53978;DHT22;39886;47.984;-1.586;2024-03-29T08:39:35;21.20;73.80
53978;DHT22;39886;47.984;-1.586;2024-03-29T08:42:02;21.20;74.40
53978;DHT22;39886;47.984;-1.586;2024-03-29T08:44:30;21.30;74.80
53978;DHT22;39886;47.984;-1.586;2024-03-29T08:46:56;21.30;76.60
53978;DHT22;39886;47.984;-1.586;2024-03-29T08:51:50;21.30;62.50
53978;DHT22;39886;47.984;-1.586;2024-03-29T08:54:15;21.40;63.30
53978;DHT22;39886;47.984;-1.586;2024-03-29T08:56:41;21.30;63.10
53978;DHT22;39886;47.984;-1.586;2024-03-29T08:59:06;21.30;63.00
53978;DHT22;39886;47.984;-1.586;2024-03-29T09:01:37;21.10;62.80
53978;DHT22;39886;47.984;-1.586;2024-03-29T09:04:03;21.10;63.00
53978;DHT22;39886;47.984;-1.586;2024-03-29T09:06:32;21.00;63.10
53978;DHT22;39886;47.984;-1.586;2024-03-29T09:08:58;20.90;63.10
53978;DHT22;39886;47.984;-1.586;2024-03-29T09:11:23;20.90;63.30
53978;DHT22;39886;47.984;-1.586;2024-03-29T09:13:49;20.80;63.30
53978;DHT22;39886;47.984;-1.586;2024-03-29T09:16:14;20.80;63.30
53978;DHT22;39886;47.984;-1.586;2024-03-29T09:18:40;20.70;63.50
53978;DHT22;39886;47.984;-1.586;2024-03-29T09:21:05;20.60;63.60
53978;DHT22;39886;47.984;-1.586;2024-03-29T09:23:33;20.60;63.70
53978;DHT22;39886;47.984;-1.586;2024-03-29T09:25:59;20.60;63.70
53978;DHT22;39886;47.984;-1.586;2024-03-29T09:28:24;20.50;63.70
53978;DHT22;39886;47.984;-1.586;2024-03-29T09:30:50;20.60;63.80
53978;DHT22;39886;47.984;-1.586;2024-03-29T09:33:16;20.50;63.70
53978;DHT22;39886;47.984;-1.586;2024-03-29T09:35:42;20.50;63.80
53978;DHT22;39886;47.984;-1.586;2024-03-29T09:38:08;20.50;63.80
53978;DHT22;39886;47.984;-1.586;2024-03-29T09:40:34;20.50;63.80
53978;DHT22;39886;47.984;-1.586;2024-03-29T09:43:00;20.50;63.90
53978;DHT22;39886;47.984;-1.586;2024-03-29T09:45:33;20.50;63.90
53978;DHT22;39886;47.984;-1.586;2024-03-29T09:48:01;20.40;63.60
53978;DHT22;39886;47.984;-1.586;2024-03-29T09:50:28;20.50;63.90
53978;DHT22;39886;47.984;-1.586;2024-03-29T09:52:54;20.50;63.80
53978;DHT22;39886;47.984;-1.586;2024-03-29T09:55:20;20.50;63.80
53978;DHT22;39886;47.984;-1.586;2024-03-29T09:57:46;20.50;63.70
53978;DHT22;39886;47.984;-1.586;2024-03-29T10:00:11;20.50;63.70
53978;DHT22;39886;47.984;-1.586;2024-03-29T10:02:37;20.50;63.60
53978;DHT22;39886;47.984;-1.586;2024-03-29T10:05:04;20.50;64.30
53978;DHT22;39886;47.984;-1.586;2024-03-29T10:07:32;20.50;63.70
53978;DHT22;39886;47.984;-1.586;2024-03-29T10:10:00;20.50;63.60
53978;DHT22;39886;47.984;-1.586;2024-03-29T10:12:27;20.50;63.60
53978;DHT22;39886;47.984;-1.586;2024-03-29T10:14:52;20.50;63.60
53978;DHT22;39886;47.984;-1.586;2024-03-29T10:17:20;20.50;63.70
53978;DHT22;39886;47.984;-1.586;2024-03-29T10:19:46;20.50;63.80
53978;DHT22;39886;47.984;-1.586;2024-03-29T10:22:12;20.40;63.70
53978;DHT22;39886;47.984;-1.586;2024-03-29T10:24:38;20.40;63.70
53978;DHT22;39886;47.984;-1.586;2024-03-29T10:27:04;20.40;63.60
53978;DHT22;39886;47.984;-1.586;2024-03-29T10:29:29;20.40;63.80
53978;DHT22;39886;47.984;-1.586;2024-03-29T10:31:55;20.40;63.90
53978;DHT22;39886;47.984;-1.586;2024-03-29T10:34:21;20.40;63.90
53978;DHT22;39886;47.984;-1.586;2024-03-29T10:36:47;20.40;64.00
53978;DHT22;39886;47.984;-1.586;2024-03-29T10:39:13;20.40;64.00
53978;DHT22;39886;47.984;-1.586;2024-03-29T10:41:39;20.40;64.00
53978;DHT22;39886;47.984;-1.586;2024-03-29T10:44:05;20.40;64.10
53978;DHT22;39886;47.984;-1.586;2024-03-29T10:46:34;20.40;64.00
53978;DHT22;39886;47.984;-1.586;2024-03-29T10:48:59;20.40;64.00
53978;DHT22;39886;47.984;-1.586;2024-03-29T10:51:26;20.40;64.00
53978;DHT22;39886;47.984;-1.586;2024-03-29T10:53:52;20.40;64.10
53978;DHT22;39886;47.984;-1.586;2024-03-29T10:56:18;20.40;64.00
53978;DHT22;39886;47.984;-1.586;2024-03-29T10:58:47;20.40;64.20
53978;DHT22;39886;47.984;-1.586;2024-03-29T11:01:15;20.40;64.10
53978;DHT22;39886;47.984;-1.586;2024-03-29T11:03:45;20.40;64.20
53978;DHT22;39886;47.984;-1.586;2024-03-29T11:06:15;20.40;64.10
53978;DHT22;39886;47.984;-1.586;2024-03-29T11:08:40;20.40;64.20
53978;DHT22;39886;47.984;-1.586;2024-03-29T11:11:10;20.40;64.10
53978;DHT22;39886;47.984;-1.586;2024-03-29T11:16:12;20.40;64.20
53978;DHT22;39886;47.984;-1.586;2024-03-29T11:18:38;20.50;64.20
53978;DHT22;39886;47.984;-1.586;2024-03-29T11:21:04;20.50;64.10
53978;DHT22;39886;47.984;-1.586;2024-03-29T11:23:31;20.50;64.10
53978;DHT22;39886;47.984;-1.586;2024-03-29T11:25:57;20.50;64.10
53978;DHT22;39886;47.984;-1.586;2024-03-29T11:28:28;20.50;64.10
53978;DHT22;39886;47.984;-1.586;2024-03-29T11:31:13;20.50;64.10
53978;DHT22;39886;47.984;-1.586;2024-03-29T11:36:10;20.50;64.00
53978;DHT22;39886;47.984;-1.586;2024-03-29T11:38:36;20.50;63.90
53978;DHT22;39886;47.984;-1.586;2024-03-29T11:41:02;20.60;63.80
53978;DHT22;39886;47.984;-1.586;2024-03-29T11:43:31;20.50;63.70
53978;DHT22;39886;47.984;-1.586;2024-03-29T11:46:00;20.60;63.70
53978;DHT22;39886;47.984;-1.586;2024-03-29T11:48:28;20.60;63.60
53978;DHT22;39886;47.984;-1.586;2024-03-29T11:50:54;20.60;63.40
53978;DHT22;39886;47.984;-1.586;2024-03-29T11:53:20;20.60;63.30
53978;DHT22;39886;47.984;-1.586;2024-03-29T11:55:46;20.60;63.20
53978;DHT22;39886;47.984;-1.586;2024-03-29T11:58:13;20.60;63.00
53978;DHT22;39886;47.984;-1.586;2024-03-29T12:00:39;20.60;63.00
53978;DHT22;39886;47.984;-1.586;2024-03-29T12:03:05;20.70;62.90
53978;DHT22;39886;47.984;-1.586;2024-03-29T12:05:32;20.70;62.80
53978;DHT22;39886;47.984;-1.586;2024-03-29T12:07:58;20.70;62.70
53978;DHT22;39886;47.984;-1.586;2024-03-29T12:10:28;20.80;62.70
53978;DHT22;39886;47.984;-1.586;2024-03-29T12:12:56;20.70;62.60
53978;DHT22;39886;47.984;-1.586;2024-03-29T12:15:25;20.70;62.70
53978;DHT22;39886;47.984;-1.586;2024-03-29T12:17:55;20.70;62.70
53978;DHT22;39886;47.984;-1.586;2024-03-29T12:20:20;20.70;62.50
53978;DHT22;39886;47.984;-1.586;2024-03-29T12:22:46;20.70;62.40
53978;DHT22;39886;47.984;-1.586;2024-03-29T12:25:12;20.70;62.40
53978;DHT22;39886;47.984;-1.586;2024-03-29T12:27:38;20.70;62.40
53978;DHT22;39886;47.984;-1.586;2024-03-29T12:30:04;20.70;62.30
53978;DHT22;39886;47.984;-1.586;2024-03-29T12:32:30;20.80;62.30
53978;DHT22;39886;47.984;-1.586;2024-03-29T12:35:07;20.80;62.30
53978;DHT22;39886;47.984;-1.586;2024-03-29T12:37:32;20.80;62.20
53978;DHT22;39886;47.984;-1.586;2024-03-29T12:39:59;20.80;62.40
53978;DHT22;39886;47.984;-1.586;2024-03-29T12:42:25;20.80;62.40
53978;DHT22;39886;47.984;-1.586;2024-03-29T12:44:50;20.80;62.20
53978;DHT22;39886;47.984;-1.586;2024-03-29T12:47:17;20.80;62.20
53978;DHT22;39886;47.984;-1.586;2024-03-29T12:49:43;20.90;62.10
53978;DHT22;39886;47.984;-1.586;2024-03-29T12:52:09;20.90;62.00
53978;DHT22;39886;47.984;-1.586;2024-03-29T12:54:35;20.90;61.90
53978;DHT22;39886;47.984;-1.586;2024-03-29T12:57:00;20.90;61.90
53978;DHT22;39886;47.984;-1.586;2024-03-29T12:59:28;21.00;61.90
53978;DHT22;39886;47.984;-1.586;2024-03-29T13:01:54;21.00;61.90
53978;DHT22;39886;47.984;-1.586;2024-03-29T13:04:19;21.00;61.80
53978;DHT22;39886;47.984;-1.586;2024-03-29T13:06:45;21.00;61.60
53978;DHT22;39886;47.984;-1.586;2024-03-29T13:09:10;21.10;61.60
53978;DHT22;39886;47.984;-1.586;2024-03-29T13:11:37;21.10;61.60
53978;DHT22;39886;47.984;-1.586;2024-03-29T13:14:03;21.10;61.60
53978;DHT22;39886;47.984;-1.586;2024-03-29T13:16:28;21.20;61.70
53978;DHT22;39886;47.984;-1.586;2024-03-29T13:18:54;21.10;61.60
53978;DHT22;39886;47.984;-1.586;2024-03-29T13:21:19;21.10;61.60
53978;DHT22;39886;47.984;-1.586;2024-03-29T13:23:45;21.10;61.60
53978;DHT22;39886;47.984;-1.586;2024-03-29T13:26:11;21.10;61.70
53978;DHT22;39886;47.984;-1.586;2024-03-29T13:28:36;21.10;61.70
53978;DHT22;39886;47.984;-1.586;2024-03-29T13:31:02;21.20;61.50
53978;DHT22;39886;47.984;-1.586;2024-03-29T13:33:27;21.20;62.20
53978;DHT22;39886;47.984;-1.586;2024-03-29T13:35:53;21.20;61.50
53978;DHT22;39886;47.984;-1.586;2024-03-29T13:38:19;21.30;61.50
53978;DHT22;39886;47.984;-1.586;2024-03-29T13:40:48;21.30;61.60
53978;DHT22;39886;47.984;-1.586;2024-03-29T13:43:13;21.30;61.70
53978;DHT22;39886;47.984;-1.586;2024-03-29T13:45:39;21.30;61.70
53978;DHT22;39886;47.984;-1.586;2024-03-29T13:48:05;21.30;61.90
53978;DHT22;39886;47.984;-1.586;2024-03-29T13:50:31;21.30;62.00
53978;DHT22;39886;47.984;-1.586;2024-03-29T13:52:56;21.30;62.30
53978;DHT22;39886;47.984;-1.586;2024-03-29T13:55:22;21.30;62.30
53978;DHT22;39886;47.984;-1.586;2024-03-29T13:57:51;21.30;62.00
53978;DHT22;39886;47.984;-1.586;2024-03-29T14:00:17;21.30;61.90
53978;DHT22;39886;47.984;-1.586;2024-03-29T14:02:44;21.30;61.80
53978;DHT22;39886;47.984;-1.586;2024-03-29T14:05:10;21.30;61.70
53978;DHT22;39886;47.984;-1.586;2024-03-29T14:07:36;21.30;61.70
53978;DHT22;39886;47.984;-1.586;2024-03-29T14:10:01;21.30;61.80
53978;DHT22;39886;47.984;-1.586;2024-03-29T14:12:29;21.20;61.80
53978;DHT22;39886;47.984;-1.586;2024-03-29T14:14:55;21.30;61.90
53978;DHT22;39886;47.984;-1.586;2024-03-29T14:17:21;21.30;62.10
53978;DHT22;39886;47.984;-1.586;2024-03-29T14:19:47;21.30;62.00
53978;DHT22;39886;47.984;-1.586;2024-03-29T14:22:14;21.30;62.00
53978;DHT22;39886;47.984;-1.586;2024-03-29T14:24:44;21.30;62.10
53978;DHT22;39886;47.984;-1.586;2024-03-29T14:27:10;21.30;61.90
53978;DHT22;39886;47.984;-1.586;2024-03-29T14:29:37;21.30;62.00
53978;DHT22;39886;47.984;-1.586;2024-03-29T14:32:03;21.30;62.30
53978;DHT22;39886;47.984;-1.586;2024-03-29T14:34:29;21.20;62.40
53978;DHT22;39886;47.984;-1.586;2024-03-29T14:37:00;21.20;62.50
53978;DHT22;39886;47.984;-1.586;2024-03-29T14:39:26;21.20;62.50
53978;DHT22;39886;47.984;-1.586;2024-03-29T14:41:53;21.20;62.40
53978;DHT22;39886;47.984;-1.586;2024-03-29T14:44:19;21.20;62.30
53978;DHT22;39886;47.984;-1.586;2024-03-29T14:46:46;21.20;62.40
53978;DHT22;39886;47.984;-1.586;2024-03-29T14:49:12;21.20;62.40
53978;DHT22;39886;47.984;-1.586;2024-03-29T14:51:39;21.20;62.40
53978;DHT22;39886;47.984;-1.586;2024-03-29T14:54:05;21.20;62.60
53978;DHT22;39886;47.984;-1.586;2024-03-29T14:56:31;21.10;62.70
53978;DHT22;39886;47.984;-1.586;2024-03-29T14:58:58;21.10;62.70
53978;DHT22;39886;47.984;-1.586;2024-03-29T15:01:24;21.10;62.90
53978;DHT22;39886;47.984;-1.586;2024-03-29T15:03:51;21.10;62.90
53978;DHT22;39886;47.984;-1.586;2024-03-29T15:06:16;21.10;63.00
53978;DHT22;39886;47.984;-1.586;2024-03-29T15:08:42;21.10;62.90
53978;DHT22;39886;47.984;-1.586;2024-03-29T15:11:07;21.00;62.90
53978;DHT22;39886;47.984;-1.586;2024-03-29T15:13:33;21.00;63.00
53978;DHT22;39886;47.984;-1.586;2024-03-29T15:15:59;21.00;63.10